sensor_id;sensor_type;location;lat;lon;timestamp;pressure;altitude;pressure_sealevel;temperature;humidity
70902;BME280;58548;47.210;8.618;2023-09-07T00:00:28;94468.94;;;26.75;41.72
70902;BME280;58548;47.210;8.618;2023-09-07T00:02:55;94334.69;;;25.93;40.78
70902;BME280;58548;47.210;8.618;2023-09-07T00:05:21;94384.28;;;26.20;41.72
70902;BME280;58548;47.210;8.618;2023-09-07T00:07:49;94459.06;;;26.70;42.12
70902;BME280;58548;47.210;8.618;2023-09-07T00:10:15;94368.56;;;26.08;41.18
70902;BME280;58548;47.210;8.618;2023-09-07T00:12:43;94456.41;;;26.70;41.68
70902;BME280;58548;47.210;8.618;2023-09-07T00:15:11;94449.25;;;26.60;41.80
70902;BME280;58548;47.210;8.618;2023-09-07T00:17:37;94448.22;;;26.56;42.17
70902;BME280;58548;47.210;8.618;2023-09-07T00:20:03;94459.16;;;26.60;42.22
70902;BME280;58548;47.210;8.618;2023-09-07T00:22:37;94453.56;;;26.56;41.83
70902;BME280;58548;47.210;8.618;2023-09-07T00:25:03;94358.81;;;25.88;41.48
70902;BME280;58548;47.210;8.618;2023-09-07T00:27:30;94449.09;;;26.46;41.52
70902;BME280;58548;47.210;8.618;2023-09-07T00:29:56;94410.53;;;26.18;42.35
70902;BME280;58548;47.210;8.618;2023-09-07T00:32:24;94461.19;;;26.44;42.35
70902;BME280;58548;47.210;8.618;2023-09-07T00:34:52;94458.53;;;26.39;41.61
70902;BME280;58548;47.210;8.618;2023-09-07T00:37:20;94347.69;;;25.70;42.16
70902;BME280;58548;47.210;8.618;2023-09-07T00:39:49;94347.69;;;25.70;42.14
70902;BME280;58548;47.210;8.618;2023-09-07T00:42:18;94444.66;;;26.31;42.20
70902;BME280;58548;47.210;8.618;2023-09-07T00:44:46;94454.78;;;26.40;42.27
70902;BME280;58548;47.210;8.618;2023-09-07T00:47:14;94453.72;;;26.41;42.43
70902;BME280;58548;47.210;8.618;2023-09-07T00:49:43;94340.22;;;25.67;41.68
70902;BME280;58548;47.210;8.618;2023-09-07T00:52:09;94364.72;;;25.85;41.94
70902;BME280;58548;47.210;8.618;2023-09-07T00:54:37;94453.22;;;26.33;41.78
70902;BME280;58548;47.210;8.618;2023-09-07T00:57:05;94456.72;;;26.34;41.55
70902;BME280;58548;47.210;8.618;2023-09-07T00:59:34;94461.25;;;26.33;41.71
70902;BME280;58548;47.210;8.618;2023-09-07T01:02:03;94401.31;;;25.95;41.87
70902;BME280;58548;47.210;8.618;2023-09-07T01:04:31;94369.09;;;25.70;41.92
70902;BME280;58548;47.210;8.618;2023-09-07T01:07:13;94466.59;;;26.33;42.39
70902;BME280;58548;47.210;8.618;2023-09-07T01:09:45;94430.09;;;26.13;41.65
70902;BME280;58548;47.210;8.618;2023-09-07T01:12:18;94445.88;;;26.15;41.43
70902;BME280;58548;47.210;8.618;2023-09-07T01:14:46;94364.34;;;25.62;42.27
70902;BME280;58548;47.210;8.618;2023-09-07T01:17:15;94365.47;;;25.56;41.42
70902;BME280;58548;47.210;8.618;2023-09-07T01:19:44;94362.22;;;25.59;41.96
70902;BME280;58548;47.210;8.618;2023-09-07T01:22:11;94446.69;;;26.10;42.31
70902;BME280;58548;47.210;8.618;2023-09-07T01:24:41;94340.38;;;25.41;42.04
70902;BME280;58548;47.210;8.618;2023-09-07T01:27:10;94357.97;;;25.53;41.38
70902;BME280;58548;47.210;8.618;2023-09-07T01:29:36;94463.00;;;26.14;41.84
70902;BME280;58548;47.210;8.618;2023-09-07T01:32:06;94439.00;;;25.98;41.37
70902;BME280;58548;47.210;8.618;2023-09-07T01:34:32;94373.47;;;25.56;41.52
70902;BME280;58548;47.210;8.618;2023-09-07T01:37:00;94346.84;;;25.35;41.30
70902;BME280;58548;47.210;8.618;2023-09-07T01:39:26;94271.75;;;24.87;41.55
70902;BME280;58548;47.210;8.618;2023-09-07T01:41:57;94364.44;;;25.47;42.25
70902;BME280;58548;47.210;8.618;2023-09-07T01:44:23;94459.34;;;25.99;41.98
70902;BME280;58548;47.210;8.618;2023-09-07T01:46:49;94444.41;;;25.88;41.80
70902;BME280;58548;47.210;8.618;2023-09-07T01:49:15;94405.78;;;25.65;42.05
70902;BME280;58548;47.210;8.618;2023-09-07T01:51:41;94416.69;;;25.73;41.57
70902;BME280;58548;47.210;8.618;2023-09-07T01:54:06;94452.97;;;25.90;42.50
70902;BME280;58548;47.210;8.618;2023-09-07T01:56:35;94453.78;;;25.91;42.19
70902;BME280;58548;47.210;8.618;2023-09-07T01:59:04;94453.47;;;25.92;41.81
70902;BME280;58548;47.210;8.618;2023-09-07T02:01:31;94418.84;;;25.71;41.65
70902;BME280;58548;47.210;8.618;2023-09-07T02:04:02;94411.91;;;25.65;41.58
70902;BME280;58548;47.210;8.618;2023-09-07T02:06:31;94354.09;;;25.29;42.21
70902;BME280;58548;47.210;8.618;2023-09-07T02:08:56;94259.75;;;24.68;42.31
70902;BME280;58548;47.210;8.618;2023-09-07T02:11:22;94361.81;;;25.31;41.95
70902;BME280;58548;47.210;8.618;2023-09-07T02:13:48;94446.56;;;25.86;41.94
70902;BME280;58548;47.210;8.618;2023-09-07T02:16:17;94369.81;;;25.36;41.51
70902;BME280;58548;47.210;8.618;2023-09-07T02:18:44;94446.09;;;25.79;42.03
70902;BME280;58548;47.210;8.618;2023-09-07T02:21:12;94440.22;;;25.77;42.04
70902;BME280;58548;47.210;8.618;2023-09-07T02:23:41;94429.28;;;25.68;41.50
70902;BME280;58548;47.210;8.618;2023-09-07T02:26:07;94350.16;;;25.17;41.70
70902;BME280;58548;47.210;8.618;2023-09-07T02:28:35;94372.28;;;25.27;41.63
70902;BME280;58548;47.210;8.618;2023-09-07T02:31:05;94424.25;;;25.61;41.33
70902;BME280;58548;47.210;8.618;2023-09-07T02:33:34;94345.88;;;25.10;41.86
70902;BME280;58548;47.210;8.618;2023-09-07T02:36:03;94378.94;;;25.25;41.37
70902;BME280;58548;47.210;8.618;2023-09-07T02:38:30;94445.59;;;25.71;41.87
70902;BME280;58548;47.210;8.618;2023-09-07T02:40:58;94414.97;;;25.48;42.28
70902;BME280;58548;47.210;8.618;2023-09-07T02:43:31;94448.53;;;25.70;41.76
70902;BME280;58548;47.210;8.618;2023-09-07T02:45:57;94320.84;;;24.96;42.06
70902;BME280;58548;47.210;8.618;2023-09-07T02:48:23;94441.84;;;25.72;42.27
70902;BME280;58548;47.210;8.618;2023-09-07T02:50:52;94447.72;;;25.69;42.12
70902;BME280;58548;47.210;8.618;2023-09-07T02:53:24;94434.97;;;25.61;41.44
70902;BME280;58548;47.210;8.618;2023-09-07T02:55:50;94443.75;;;25.62;42.21
70902;BME280;58548;47.210;8.618;2023-09-07T02:58:16;94338.75;;;24.95;41.39
70902;BME280;58548;47.210;8.618;2023-09-07T03:00:50;94397.63;;;25.30;41.79
70902;BME280;58548;47.210;8.618;2023-09-07T03:03:16;94339.03;;;24.89;41.76
70902;BME280;58548;47.210;8.618;2023-09-07T03:05:43;94423.53;;;25.45;41.80
70902;BME280;58548;47.210;8.618;2023-09-07T03:08:09;94310.25;;;24.75;41.70
70902;BME280;58548;47.210;8.618;2023-09-07T03:10:35;94444.31;;;25.53;42.09
70902;BME280;58548;47.210;8.618;2023-09-07T03:13:06;94375.81;;;25.12;42.04
70902;BME280;58548;47.210;8.618;2023-09-07T03:15:32;94335.59;;;24.83;41.91
70902;BME280;58548;47.210;8.618;2023-09-07T03:18:01;94415.78;;;25.38;42.06
70902;BME280;58548;47.210;8.618;2023-09-07T03:20:27;94342.78;;;24.88;42.03
70902;BME280;58548;47.210;8.618;2023-09-07T03:22:53;94347.06;;;24.89;42.50
70902;BME280;58548;47.210;8.618;2023-09-07T03:25:22;94428.63;;;25.36;41.80
70902;BME280;58548;47.210;8.618;2023-09-07T03:27:53;94354.28;;;24.83;42.01
70902;BME280;58548;47.210;8.618;2023-09-07T03:30:19;94441.97;;;25.41;42.04
70902;BME280;58548;47.210;8.618;2023-09-07T03:32:45;94430.78;;;25.29;41.57
70902;BME280;58548;47.210;8.618;2023-09-07T03:35:13;94350.56;;;24.79;41.83
70902;BME280;58548;47.210;8.618;2023-09-07T03:37:42;94453.75;;;25.35;41.70
70902;BME280;58548;47.210;8.618;2023-09-07T03:40:08;94454.81;;;25.39;41.83
70902;BME280;58548;47.210;8.618;2023-09-07T03:42:35;94426.81;;;25.21;42.30
70902;BME280;58548;47.210;8.618;2023-09-07T03:45:05;94451.63;;;25.37;42.11
70902;BME280;58548;47.210;8.618;2023-09-07T03:47:31;94359.41;;;24.74;42.11
70902;BME280;58548;47.210;8.618;2023-09-07T03:49:57;94348.16;;;24.67;42.07
70902;BME280;58548;47.210;8.618;2023-09-07T03:52:25;94417.75;;;25.12;41.59
70902;BME280;58548;47.210;8.618;2023-09-07T03:54:55;94421.47;;;25.16;41.83
70902;BME280;58548;47.210;8.618;2023-09-07T03:57:25;94451.09;;;25.30;41.48
70902;BME280;58548;47.210;8.618;2023-09-07T03:59:54;94424.97;;;25.17;41.50
70902;BME280;58548;47.210;8.618;2023-09-07T04:02:26;94424.44;;;25.09;41.90
70902;BME280;58548;47.210;8.618;2023-09-07T04:04:53;94416.97;;;25.06;41.67
70902;BME280;58548;47.210;8.618;2023-09-07T04:07:20;94434.59;;;25.12;41.47
70902;BME280;58548;47.210;8.618;2023-09-07T04:09:53;94436.72;;;25.16;42.11
70902;BME280;58548;47.210;8.618;2023-09-07T04:12:19;94435.13;;;25.20;41.92
70902;BME280;58548;47.210;8.618;2023-09-07T04:14:47;94322.59;;;24.40;42.09
70902;BME280;58548;47.210;8.618;2023-09-07T04:17:15;94436.72;;;25.16;42.56
70902;BME280;58548;47.210;8.618;2023-09-07T04:19:43;94446.88;;;25.13;42.05
70902;BME280;58548;47.210;8.618;2023-09-07T04:22:10;94358.34;;;24.49;42.45
70902;BME280;58548;47.210;8.618;2023-09-07T04:24:36;94445.28;;;25.07;42.06
70902;BME280;58548;47.210;8.618;2023-09-07T04:27:04;94444.53;;;25.02;42.33
70902;BME280;58548;47.210;8.618;2023-09-07T04:29:29;94372.25;;;24.57;41.92
70902;BME280;58548;47.210;8.618;2023-09-07T04:31:55;94457.06;;;25.06;41.76
70902;BME280;58548;47.210;8.618;2023-09-07T04:34:26;94443.22;;;24.94;42.68
70902;BME280;58548;47.210;8.618;2023-09-07T04:36:52;94358.13;;;24.35;42.54
70902;BME280;58548;47.210;8.618;2023-09-07T04:39:20;94342.38;;;24.23;42.53
70902;BME280;58548;47.210;8.618;2023-09-07T04:41:51;94348.25;;;24.31;41.92
70902;BME280;58548;47.210;8.618;2023-09-07T04:44:18;94450.13;;;25.00;42.23
70902;BME280;58548;47.210;8.618;2023-09-07T04:46:44;94427.72;;;24.80;42.18
70902;BME280;58548;47.210;8.618;2023-09-07T04:49:10;94438.16;;;24.87;41.97
70902;BME280;58548;47.210;8.618;2023-09-07T04:51:36;94430.94;;;24.82;42.03
70902;BME280;58548;47.210;8.618;2023-09-07T04:54:05;94458.69;;;24.97;42.69
70902;BME280;58548;47.210;8.618;2023-09-07T04:56:31;94398.91;;;24.62;42.13
70902;BME280;58548;47.210;8.618;2023-09-07T04:59:02;94457.34;;;24.99;41.97
70902;BME280;58548;47.210;8.618;2023-09-07T05:01:28;94453.88;;;24.99;42.01
70902;BME280;58548;47.210;8.618;2023-09-07T05:03:57;94379.72;;;24.49;41.92
70902;BME280;58548;47.210;8.618;2023-09-07T05:06:30;94296.25;;;23.92;42.91
70902;BME280;58548;47.210;8.618;2023-09-07T05:09:03;94373.84;;;24.47;43.11
70902;BME280;58548;47.210;8.618;2023-09-07T05:11:29;94464.53;;;25.04;42.66
70902;BME280;58548;47.210;8.618;2023-09-07T05:13:55;94372.25;;;24.46;42.33
70902;BME280;58548;47.210;8.618;2023-09-07T05:16:23;94373.31;;;24.56;42.27
70902;BME280;58548;47.210;8.618;2023-09-07T05:18:51;94459.72;;;25.11;42.42
70902;BME280;58548;47.210;8.618;2023-09-07T05:21:17;94393.28;;;24.68;42.35
70902;BME280;58548;47.210;8.618;2023-09-07T05:23:43;94398.63;;;24.68;42.03
70902;BME280;58548;47.210;8.618;2023-09-07T05:26:09;94465.84;;;25.12;42.56
70902;BME280;58548;47.210;8.618;2023-09-07T05:28:39;94471.72;;;25.14;42.19
70902;BME280;58548;47.210;8.618;2023-09-07T05:31:09;94467.19;;;25.14;42.40
70902;BME280;58548;47.210;8.618;2023-09-07T05:33:35;94395.16;;;24.68;42.28
70902;BME280;58548;47.210;8.618;2023-09-07T05:36:03;94387.97;;;24.63;41.93
70902;BME280;58548;47.210;8.618;2023-09-07T05:38:34;94474.38;;;25.24;42.01
70902;BME280;58548;47.210;8.618;2023-09-07T05:41:00;94450.09;;;25.10;42.15
70902;BME280;58548;47.210;8.618;2023-09-07T05:43:31;94397.56;;;24.80;42.73
70902;BME280;58548;47.210;8.618;2023-09-07T05:45:57;94444.75;;;25.16;42.94
70902;BME280;58548;47.210;8.618;2023-09-07T05:48:23;94477.00;;;25.40;42.39
70902;BME280;58548;47.210;8.618;2023-09-07T05:50:51;94389.50;;;24.90;43.21
70902;BME280;58548;47.210;8.618;2023-09-07T05:53:19;94392.97;;;24.96;42.96
70902;BME280;58548;47.210;8.618;2023-09-07T05:55:46;94478.31;;;25.53;42.56
70902;BME280;58548;47.210;8.618;2023-09-07T05:58:14;94379.34;;;24.92;42.83
70902;BME280;58548;47.210;8.618;2023-09-07T06:00:43;94482.50;;;25.69;43.17
70902;BME280;58548;47.210;8.618;2023-09-07T06:03:09;94435.00;;;25.46;42.91
70902;BME280;58548;47.210;8.618;2023-09-07T06:05:39;94480.25;;;25.87;43.44
70902;BME280;58548;47.210;8.618;2023-09-07T06:08:05;94406.41;;;25.41;43.64
70902;BME280;58548;47.210;8.618;2023-09-07T06:10:34;94483.13;;;26.01;42.65
70902;BME280;58548;47.210;8.618;2023-09-07T06:13:00;94467.91;;;25.96;43.19
70902;BME280;58548;47.210;8.618;2023-09-07T06:15:27;94383.94;;;25.52;43.29
70902;BME280;58548;47.210;8.618;2023-09-07T06:17:56;94405.19;;;25.73;43.69
70902;BME280;58548;47.210;8.618;2023-09-07T06:20:26;94392.31;;;25.75;43.84
70902;BME280;58548;47.210;8.618;2023-09-07T06:22:52;94463.91;;;26.39;43.45
70902;BME280;58548;47.210;8.618;2023-09-07T06:25:21;94405.72;;;26.15;42.99
70902;BME280;58548;47.210;8.618;2023-09-07T06:27:47;94483.91;;;26.81;43.10
70902;BME280;58548;47.210;8.618;2023-09-07T06:30:14;94417.13;;;26.60;43.48
70902;BME280;58548;47.210;8.618;2023-09-07T06:32:40;94385.50;;;26.62;43.55
70902;BME280;58548;47.210;8.618;2023-09-07T06:35:09;94486.88;;;27.58;43.89
70902;BME280;58548;47.210;8.618;2023-09-07T06:37:37;94474.00;;;27.98;43.63
70902;BME280;58548;47.210;8.618;2023-09-07T06:40:09;94490.22;;;28.64;43.31
70902;BME280;58548;47.210;8.618;2023-09-07T06:42:35;94464.56;;;29.19;41.91
70902;BME280;58548;47.210;8.618;2023-09-07T06:45:04;94483.78;;;29.96;41.01
70902;BME280;58548;47.210;8.618;2023-09-07T06:47:32;94492.84;;;30.60;39.99
70902;BME280;58548;47.210;8.618;2023-09-07T06:49:58;94499.25;;;31.27;38.90
70902;BME280;58548;47.210;8.618;2023-09-07T06:52:26;94432.66;;;31.45;37.60
70902;BME280;58548;47.210;8.618;2023-09-07T06:54:55;94417.66;;;31.97;36.94
70902;BME280;58548;47.210;8.618;2023-09-07T06:57:21;94426.22;;;32.60;34.90
70902;BME280;58548;47.210;8.618;2023-09-07T06:59:49;94505.72;;;33.42;33.58
70902;BME280;58548;47.210;8.618;2023-09-07T07:02:15;94415.66;;;33.24;32.75
70902;BME280;58548;47.210;8.618;2023-09-07T07:04:41;94506.41;;;34.20;31.78
70902;BME280;58548;47.210;8.618;2023-09-07T07:07:10;94424.34;;;33.98;31.46
70902;BME280;58548;47.210;8.618;2023-09-07T07:09:37;94422.09;;;34.34;30.45
70902;BME280;58548;47.210;8.618;2023-09-07T07:12:08;94427.22;;;34.82;30.68
70902;BME280;58548;47.210;8.618;2023-09-07T07:14:35;94511.38;;;35.77;29.69
70902;BME280;58548;47.210;8.618;2023-09-07T07:17:00;94503.31;;;36.18;29.31
70902;BME280;58548;47.210;8.618;2023-09-07T07:19:32;94461.13;;;36.37;28.61
70902;BME280;58548;47.210;8.618;2023-09-07T07:21:58;94503.72;;;37.02;27.53
70902;BME280;58548;47.210;8.618;2023-09-07T07:24:24;94463.78;;;37.06;27.03
70902;BME280;58548;47.210;8.618;2023-09-07T07:26:50;94510.47;;;37.72;26.51
70902;BME280;58548;47.210;8.618;2023-09-07T07:29:21;94448.25;;;37.75;24.92
70902;BME280;58548;47.210;8.618;2023-09-07T07:31:49;94447.75;;;38.05;25.09
70902;BME280;58548;47.210;8.618;2023-09-07T07:34:15;94512.81;;;38.81;25.07
70902;BME280;58548;47.210;8.618;2023-09-07T07:36:41;94497.47;;;38.93;23.83
70902;BME280;58548;47.210;8.618;2023-09-07T07:39:07;94511.03;;;39.32;23.67
70902;BME280;58548;47.210;8.618;2023-09-07T07:41:34;94507.84;;;39.53;23.36
70902;BME280;58548;47.210;8.618;2023-09-07T07:44:00;94496.94;;;39.76;22.27
70902;BME280;58548;47.210;8.618;2023-09-07T07:46:29;94513.53;;;40.18;22.22
70902;BME280;58548;47.210;8.618;2023-09-07T07:48:55;94499.78;;;40.41;22.37
70902;BME280;58548;47.210;8.618;2023-09-07T07:51:23;94511.19;;;40.77;22.42
70902;BME280;58548;47.210;8.618;2023-09-07T07:53:51;94486.25;;;40.86;21.03
70902;BME280;58548;47.210;8.618;2023-09-07T07:56:18;94510.47;;;41.22;20.82
70902;BME280;58548;47.210;8.618;2023-09-07T07:58:44;94518.78;;;41.33;20.84
70902;BME280;58548;47.210;8.618;2023-09-07T08:01:18;94498.09;;;41.42;20.86
70902;BME280;58548;47.210;8.618;2023-09-07T08:03:49;94417.63;;;41.13;20.61
70902;BME280;58548;47.210;8.618;2023-09-07T08:06:17;94499.69;;;41.92;20.03
70902;BME280;58548;47.210;8.618;2023-09-07T08:08:43;94439.28;;;41.85;19.28
70902;BME280;58548;47.210;8.618;2023-09-07T08:11:09;94494.44;;;42.32;19.18
70902;BME280;58548;47.210;8.618;2023-09-07T08:13:35;94480.38;;;42.37;19.54
70902;BME280;58548;47.210;8.618;2023-09-07T08:16:04;94478.94;;;42.72;18.83
70902;BME280;58548;47.210;8.618;2023-09-07T08:18:34;94502.56;;;43.20;18.74
70902;BME280;58548;47.210;8.618;2023-09-07T08:21:04;94512.81;;;43.49;17.89
70902;BME280;58548;47.210;8.618;2023-09-07T08:23:33;94505.78;;;43.84;18.08
70902;BME280;58548;47.210;8.618;2023-09-07T08:26:02;94465.28;;;43.77;17.47
70902;BME280;58548;47.210;8.618;2023-09-07T08:28:31;94450.72;;;43.91;17.06
70902;BME280;58548;47.210;8.618;2023-09-07T08:30:57;94383.97;;;43.80;16.96
70902;BME280;58548;47.210;8.618;2023-09-07T08:33:28;94516.94;;;44.73;16.19
70902;BME280;58548;47.210;8.618;2023-09-07T08:35:56;94515.72;;;44.88;16.35
70902;BME280;58548;47.210;8.618;2023-09-07T08:38:23;94512.38;;;45.15;16.38
70902;BME280;58548;47.210;8.618;2023-09-07T08:41:00;94509.19;;;45.28;15.88
70902;BME280;58548;47.210;8.618;2023-09-07T08:43:28;94505.63;;;45.31;15.82
70902;BME280;58548;47.210;8.618;2023-09-07T08:46:15;94510.69;;;45.40;16.50
70902;BME280;58548;47.210;8.618;2023-09-07T08:48:46;94516.41;;;45.60;16.70
70902;BME280;58548;47.210;8.618;2023-09-07T08:51:17;94500.66;;;45.64;16.04
70902;BME280;58548;47.210;8.618;2023-09-07T08:53:44;94430.66;;;45.47;15.58
70902;BME280;58548;47.210;8.618;2023-09-07T08:56:16;94443.44;;;45.75;14.81
70902;BME280;58548;47.210;8.618;2023-09-07T08:58:42;94505.13;;;46.31;15.40
70902;BME280;58548;47.210;8.618;2023-09-07T09:01:15;94444.31;;;46.03;15.24
70902;BME280;58548;47.210;8.618;2023-09-07T09:03:45;94453.16;;;46.26;15.26
70902;BME280;58548;47.210;8.618;2023-09-07T09:06:12;94503.19;;;46.66;14.74
70902;BME280;58548;47.210;8.618;2023-09-07T09:08:52;94455.53;;;46.58;15.04
70902;BME280;58548;47.210;8.618;2023-09-07T09:11:20;94507.41;;;47.05;14.27
70902;BME280;58548;47.210;8.618;2023-09-07T09:13:50;94502.47;;;47.20;14.41
70902;BME280;58548;47.210;8.618;2023-09-07T09:16:16;94511.28;;;47.39;14.94
70902;BME280;58548;47.210;8.618;2023-09-07T09:19:03;94507.34;;;47.64;14.74
70902;BME280;58548;47.210;8.618;2023-09-07T09:21:33;94437.91;;;47.31;13.93
70902;BME280;58548;47.210;8.618;2023-09-07T09:24:01;94506.66;;;47.80;13.86
70902;BME280;58548;47.210;8.618;2023-09-07T09:26:29;94512.50;;;47.85;13.85
70902;BME280;58548;47.210;8.618;2023-09-07T09:28:59;94502.84;;;47.74;13.83
70902;BME280;58548;47.210;8.618;2023-09-07T09:31:31;94490.78;;;47.60;14.00
70902;BME280;58548;47.210;8.618;2023-09-07T09:33:59;94500.75;;;47.78;14.03
70902;BME280;58548;47.210;8.618;2023-09-07T09:36:36;94504.75;;;47.77;14.00
70902;BME280;58548;47.210;8.618;2023-09-07T09:39:04;94456.91;;;47.52;14.36
70902;BME280;58548;47.210;8.618;2023-09-07T09:41:32;94447.41;;;47.53;14.14
70902;BME280;58548;47.210;8.618;2023-09-07T09:44:00;94498.91;;;47.95;14.26
70902;BME280;58548;47.210;8.618;2023-09-07T09:46:36;94506.72;;;48.00;13.88
70902;BME280;58548;47.210;8.618;2023-09-07T09:49:08;94504.16;;;48.09;13.66
70902;BME280;58548;47.210;8.618;2023-09-07T09:51:38;94494.19;;;47.95;13.74
70902;BME280;58548;47.210;8.618;2023-09-07T09:54:06;94494.88;;;47.99;13.79
70902;BME280;58548;47.210;8.618;2023-09-07T09:56:32;94501.41;;;48.09;13.79
70902;BME280;58548;47.210;8.618;2023-09-07T09:58:58;94497.38;;;48.14;13.87
70902;BME280;58548;47.210;8.618;2023-09-07T10:01:29;94428.13;;;47.74;13.50
70902;BME280;58548;47.210;8.618;2023-09-07T10:04:00;94415.13;;;47.91;13.53
70902;BME280;58548;47.210;8.618;2023-09-07T10:06:28;94431.34;;;48.12;13.10
70902;BME280;58548;47.210;8.618;2023-09-07T10:08:59;94484.75;;;48.73;13.53
70902;BME280;58548;47.210;8.618;2023-09-07T10:11:34;94479.59;;;48.92;13.20
70902;BME280;58548;47.210;8.618;2023-09-07T10:14:04;94498.63;;;49.27;13.35
70902;BME280;58548;47.210;8.618;2023-09-07T10:16:45;94450.25;;;49.28;12.94
70902;BME280;58548;47.210;8.618;2023-09-07T10:19:25;94433.91;;;49.33;13.06
70902;BME280;58548;47.210;8.618;2023-09-07T10:21:56;94417.69;;;49.32;13.09
70902;BME280;58548;47.210;8.618;2023-09-07T10:24:34;94420.72;;;49.54;12.82
70902;BME280;58548;47.210;8.618;2023-09-07T10:27:09;94439.50;;;49.79;13.26
70902;BME280;58548;47.210;8.618;2023-09-07T10:29:50;94485.09;;;50.24;12.25
70902;BME280;58548;47.210;8.618;2023-09-07T10:32:20;94481.91;;;50.26;12.70
70902;BME280;58548;47.210;8.618;2023-09-07T10:34:46;94488.16;;;50.30;12.74
70902;BME280;58548;47.210;8.618;2023-09-07T10:37:14;94433.25;;;50.05;12.50
70902;BME280;58548;47.210;8.618;2023-09-07T10:39:42;94422.44;;;49.94;12.58
70902;BME280;58548;47.210;8.618;2023-09-07T10:42:21;94418.56;;;49.91;12.38
70902;BME280;58548;47.210;8.618;2023-09-07T10:44:48;94423.25;;;49.94;12.07
70902;BME280;58548;47.210;8.618;2023-09-07T10:47:16;94400.69;;;49.92;12.38
70902;BME280;58548;47.210;8.618;2023-09-07T10:49:45;94477.69;;;50.34;12.52
70902;BME280;58548;47.210;8.618;2023-09-07T10:52:11;94478.47;;;50.05;12.38
70902;BME280;58548;47.210;8.618;2023-09-07T10:54:39;94467.66;;;49.94;12.88
70902;BME280;58548;47.210;8.618;2023-09-07T10:57:13;94394.38;;;49.46;12.41
70902;BME280;58548;47.210;8.618;2023-09-07T10:59:47;94464.88;;;49.94;13.14
70902;BME280;58548;47.210;8.618;2023-09-07T11:02:14;94461.72;;;50.09;13.14
70902;BME280;58548;47.210;8.618;2023-09-07T11:04:41;94468.22;;;50.19;12.61
70902;BME280;58548;47.210;8.618;2023-09-07T11:07:09;94398.78;;;49.60;13.11
70902;BME280;58548;47.210;8.618;2023-09-07T11:09:40;94390.22;;;49.54;13.76
70902;BME280;58548;47.210;8.618;2023-09-07T11:12:07;94461.81;;;50.05;13.64
70902;BME280;58548;47.210;8.618;2023-09-07T11:14:38;94453.03;;;50.07;13.18
70902;BME280;58548;47.210;8.618;2023-09-07T11:17:07;94455.28;;;50.12;13.59
70902;BME280;58548;47.210;8.618;2023-09-07T11:19:34;94431.13;;;49.96;13.90
70902;BME280;58548;47.210;8.618;2023-09-07T11:22:03;94382.88;;;49.60;13.90
70902;BME280;58548;47.210;8.618;2023-09-07T11:24:34;94449.03;;;50.08;13.53
70902;BME280;58548;47.210;8.618;2023-09-07T11:27:01;94388.94;;;49.72;13.28
70902;BME280;58548;47.210;8.618;2023-09-07T11:29:33;94425.50;;;50.00;13.34
70902;BME280;58548;47.210;8.618;2023-09-07T11:32:09;94444.25;;;50.25;13.41
70902;BME280;58548;47.210;8.618;2023-09-07T11:34:50;94446.69;;;50.23;12.90
70902;BME280;58548;47.210;8.618;2023-09-07T11:37:24;94354.16;;;49.54;13.08
70902;BME280;58548;47.210;8.618;2023-09-07T11:39:53;94377.06;;;49.09;13.04
70902;BME280;58548;47.210;8.618;2023-09-07T11:42:19;94429.03;;;49.21;13.88
70902;BME280;58548;47.210;8.618;2023-09-07T11:44:48;94448.97;;;49.16;13.54
70902;BME280;58548;47.210;8.618;2023-09-07T11:47:16;94441.69;;;49.05;13.92
70902;BME280;58548;47.210;8.618;2023-09-07T11:49:42;94379.53;;;48.70;14.48
70902;BME280;58548;47.210;8.618;2023-09-07T11:52:08;94380.00;;;48.85;14.14
70902;BME280;58548;47.210;8.618;2023-09-07T11:54:36;94447.66;;;49.37;13.92
70902;BME280;58548;47.210;8.618;2023-09-07T11:57:03;94437.66;;;49.43;14.25
70902;BME280;58548;47.210;8.618;2023-09-07T11:59:31;94387.09;;;49.19;14.34
70902;BME280;58548;47.210;8.618;2023-09-07T12:02:00;94406.69;;;49.28;14.39
70902;BME280;58548;47.210;8.618;2023-09-07T12:04:28;94373.06;;;48.93;13.93
70902;BME280;58548;47.210;8.618;2023-09-07T12:06:57;94437.88;;;49.16;14.22
70902;BME280;58548;47.210;8.618;2023-09-07T12:09:27;94420.25;;;48.89;15.07
70902;BME280;58548;47.210;8.618;2023-09-07T12:11:53;94432.50;;;48.92;15.20
70902;BME280;58548;47.210;8.618;2023-09-07T12:14:19;94364.19;;;48.49;14.58
70902;BME280;58548;47.210;8.618;2023-09-07T12:16:48;94390.13;;;48.55;14.60
70902;BME280;58548;47.210;8.618;2023-09-07T12:19:16;94437.31;;;48.71;14.69
70902;BME280;58548;47.210;8.618;2023-09-07T12:21:42;94436.56;;;48.67;15.07
70902;BME280;58548;47.210;8.618;2023-09-07T12:24:11;94357.28;;;48.00;15.07
70902;BME280;58548;47.210;8.618;2023-09-07T12:26:38;94429.44;;;48.29;15.25
70902;BME280;58548;47.210;8.618;2023-09-07T12:29:04;94348.47;;;47.65;15.32
70902;BME280;58548;47.210;8.618;2023-09-07T12:31:32;94423.34;;;48.18;15.40
70902;BME280;58548;47.210;8.618;2023-09-07T12:33:58;94342.13;;;47.64;15.45
70902;BME280;58548;47.210;8.618;2023-09-07T12:36:26;94354.78;;;47.85;15.18
70902;BME280;58548;47.210;8.618;2023-09-07T12:38:58;94391.69;;;48.19;15.47
70902;BME280;58548;47.210;8.618;2023-09-07T12:41:30;94341.63;;;47.90;14.99
70902;BME280;58548;47.210;8.618;2023-09-07T12:43:56;94333.25;;;47.73;14.69
70902;BME280;58548;47.210;8.618;2023-09-07T12:46:27;94416.53;;;48.03;15.08
70902;BME280;58548;47.210;8.618;2023-09-07T12:48:53;94418.78;;;47.88;15.21
70902;BME280;58548;47.210;8.618;2023-09-07T12:51:21;94353.91;;;47.24;15.17
70902;BME280;58548;47.210;8.618;2023-09-07T12:53:47;94368.16;;;47.23;16.00
70902;BME280;58548;47.210;8.618;2023-09-07T12:56:16;94263.63;;;46.43;15.44
70902;BME280;58548;47.210;8.618;2023-09-07T12:58:44;94417.25;;;47.39;16.08
70902;BME280;58548;47.210;8.618;2023-09-07T13:01:15;94383.59;;;47.20;16.04
70902;BME280;58548;47.210;8.618;2023-09-07T13:03:44;94338.69;;;46.89;16.32
70902;BME280;58548;47.210;8.618;2023-09-07T13:06:12;94406.66;;;47.34;16.21